Happy Valentine's Day! 

Flight Track Log - Related Links

Times and Time Zones

All times are in EDT time to prevent confusion due to time zone crossing. See the N100WX flight status page for this flight to view local times or setup timezone preferences in your user account.


Time Position Orientation Groundspeed Altitude Reporting Facility
EDT Latitude Longitude Course Direction KTS MPH feet Rate Location/Type
Wed 05:48:22 PM 41.5275 -81.6675 26° Northeast 146 168 1,300  Level Cleveland Center
Wed 05:49:29 PM 41.5819 -81.6325 26° Northeast 227 261 3,600 2,177 Climbing Cleveland Center
Wed 05:50:15 PM 41.6219 -81.5997 31° Northeast 244 281 5,400 2,491 Climbing Cleveland Center
Wed 05:51:15 PM 41.6828 -81.5506 31° Northeast 250 288 8,000 2,500 Climbing Cleveland Center
Wed 05:52:15 PM 41.7436 -81.5014 31° Northeast 255 293 10,400 2,200 Climbing Cleveland Center
Wed 05:53:15 PM 41.8044 -81.4467 34° Northeast 261 300 12,400 1,850 Climbing Cleveland Center
Wed 05:54:15 PM 41.8469 -81.3608 56° Northeast 261 300 14,100 1,900 Climbing Cleveland Center
Wed 05:55:15 PM 41.8619 -81.2661 78° East 268 308 16,200 1,900 Climbing Cleveland Center
Wed 05:56:15 PM 41.8794 -81.1575 78° East 285 328 17,900 1,850 Climbing Cleveland Center
Wed 05:57:15 PM 41.8986 -81.0461 77° East 304 350 19,900 2,050 Climbing Cleveland Center
Wed 05:58:15 PM 41.9178 -80.9264 78° East 315 362 22,000 2,000 Climbing Cleveland Center
Wed 05:59:15 PM 41.9369 -80.8092 78° East 321 369 23,900 1,900 Climbing Cleveland Center
Wed 06:00:15 PM 41.9558 -80.6808 79° East 321 369 25,800 1,450 Climbing Cleveland Center
Wed 06:01:15 PM 41.9703 -80.5497 82° East 328 377 26,800 1,500 Climbing Cleveland Center
Wed 06:02:15 PM 41.9600 -80.4239 96° East 329 379 28,800 1,100 Climbing Cleveland Center
Wed 06:03:15 PM 41.9472 -80.2900 97° East 344 396 29,000 100 Climbing Cleveland Center
Wed 06:04:15 PM 41.9319 -80.1422 98° East 383 441 29,000  Level Cleveland Center
Wed 06:05:15 PM 41.9397 -79.9858 86° East 404 465 29,000  Level Cleveland Center
Wed 06:06:15 PM 41.9658 -79.8292 77° East 417 480 29,000  Level Cleveland Center
Wed 06:07:15 PM 41.9897 -79.6697 79° East 427 491 29,000  Level Cleveland Center
Wed 06:08:15 PM 42.0153 -79.5072 78° East 427 491 29,000  Level Cleveland Center
Wed 06:09:15 PM 42.0389 -79.3503 78° East 432 497 29,000  Level Cleveland Center
Wed 06:10:15 PM 42.0642 -79.1875 78° East 432 497 29,000  Level Cleveland Center
Wed 06:11:15 PM 42.0872 -79.0303 79° East 432 497 29,000  Level Cleveland Center
Wed 06:12:15 PM 42.1119 -78.8675 78° East 432 497 29,000  Level Cleveland Center
Wed 06:13:15 PM 42.1364 -78.7072 78° East 432 497 29,000  Level Cleveland Center
Wed 06:14:15 PM 42.1586 -78.5411 80° East 432 497 29,000  Level Cleveland Center
Wed 06:15:15 PM 42.1831 -78.4003 77° East 432 497 29,000  Level Cleveland Center
Wed 06:16:15 PM 42.2050 -78.2369 80° East 432 497 29,000 50 Level Cleveland Center
Wed 06:17:15 PM 42.2286 -78.0761 79° East 432 497 29,100  Climbing Cleveland Center
Wed 06:18:15 PM 42.2522 -77.9125 79° East 432 497 29,000 -50 Descending Cleveland Center
Wed 06:19:15 PM 42.2769 -77.7347 79° East 432 497 29,000  Level Cleveland Center
Wed 06:20:15 PM 42.3000 -77.5736 79° East 432 497 29,000  Level Cleveland Center
Wed 06:21:15 PM 42.3206 -77.4097 80° East 432 497 29,000  Level Cleveland Center
Wed 06:22:15 PM 42.3433 -77.2511 79° East 432 497 29,000  Level Cleveland Center
Wed 06:24:37 PM 42.3936 -76.8600 80° East 452 520 29,000  Level Boston Center
Wed 06:25:38 PM 42.4142 -76.7011 80° East 441 507 29,000  Level Boston Center
Wed 06:26:38 PM 42.4350 -76.5336 80° East 441 507 29,000  Level Boston Center
Wed 06:27:39 PM 42.4572 -76.3719 79° East 441 507 29,000  Level Boston Center
Wed 06:28:39 PM 42.4775 -76.2097 80° East 441 507 29,000  Level Boston Center
Wed 06:29:39 PM 42.4975 -76.0419 81° East 441 507 29,000  Level Boston Center
Wed 06:30:37 PM 42.5150 -75.8769 82° East 441 507 29,000  Level Boston Center
Wed 06:31:38 PM 42.5367 -75.7117 80° East 441 507 29,000  Level Boston Center
Wed 06:32:40 PM 42.5558 -75.5464 81° East 441 507 29,000  Level Boston Center
Wed 06:33:37 PM 42.5769 -75.3811 80° East 441 507 29,000  Level Boston Center
Wed 06:34:37 PM 42.5908 -75.2464 82° East 446 513 29,000  Level Boston Center
Wed 06:35:38 PM 42.6122 -75.0442 82° East 446 513 29,000  Level Boston Center
Wed 06:36:50 PM 42.6328 -74.8783 80° East 446 513 29,000  Level Boston Center
Wed 06:37:49 PM 42.6536 -74.6761 82° East 446 513 29,000  Level Boston Center
Wed 06:38:51 PM 42.6711 -74.5242 81° East 453 521 29,000  Level Boston Center
Wed 06:39:52 PM 42.6886 -74.3553 82° East 448 516 29,000  Level Boston Center
Wed 06:40:49 PM 42.7058 -74.1889 82° East 443 510 29,000  Level Boston Center
Wed 06:41:49 PM 42.7208 -74.0197 83° East 443 510 29,000  Level Boston Center
Wed 06:42:50 PM 42.7086 -73.8444 95° East 443 510 29,000  Level Boston Center
Wed 06:43:49 PM 42.6958 -73.6744 96° East 443 510 29,000 -850 Level Boston Center
Wed 06:44:50 PM 42.6831 -73.5078 96° East 443 510 27,300 -1,736 Descending Boston Center
Wed 06:45:50 PM 42.6697 -73.3464 96° East 438 504 25,500 -1,820 Descending Boston Center
Wed 06:46:52 PM 42.6544 -73.1769 97° East 425 489 23,600 -1,866 Descending Boston Center
Wed 06:47:49 PM 42.6406 -73.0272 97° East 409 471 21,800 -1,815 Descending Boston Center
Wed 06:48:51 PM 42.6289 -72.8747 96° East 402 463 20,000 -1,672 Descending Boston Center
Wed 06:49:51 PM 42.6147 -72.7447 98° East 384 442 18,400 -1,488 Descending Boston Center
Wed 06:50:52 PM 42.6025 -72.6008 97° East 374 430 17,000 -1,500 Descending Boston Center
Wed 06:51:51 PM 42.5881 -72.4569 98° East 374 430 15,400 -1,613 Descending Boston Center
Wed 06:52:51 PM 42.5753 -72.3189 97° East 369 425 13,800 -1,636 Descending Boston Center
Wed 06:53:52 PM 42.5689 -72.2006 94° East 337 388 12,100 -1,664 Descending Boston Center
Wed 06:54:50 PM 42.5750 -72.0989 85° East 299 344 10,500 -1,780 Descending Boston Center
Wed 06:55:50 PM 42.5661 -71.9833 96° East 287 330 8,600 -1,770 Descending Boston Center
Wed 06:56:52 PM 42.5575 -71.8875 97° East 287 330 6,900 -1,800 Descending Boston Center
Wed 06:57:50 PM 42.5547 -71.7806 92° East 267 307 5,000 -1,217 Descending Boston Center
Wed 06:59:15 PM 42.5542 -71.6706 90° East 249 287 4,000 -414 Descending Boston Center
Wed 07:00:15 PM 42.5500 -71.5667 93° East 212 244 4,000 -300 Level KA90
Wed 07:01:15 PM 42.5500 -71.4833 90° East 213 245 3,400 -842 Descending KA90
Wed 07:02:09 PM 42.5333 -71.4167 109° East 205 236 2,400 -895 Descending KA90
Wed 07:03:09 PM 42.5167 -71.3500 109° East 190 219 1,700 -350 Descending KA90
Wed 07:04:09 PM 42.5000 -71.2833 109° East 168 193 1,700 -190 Level KA90
Wed 07:05:15 PM 42.4833 -71.2333 114° Southeast 150 173 1,300 -500 Descending KA90
Wed 07:06:09 PM 42.4667 -71.2500 216° Southwest 131 151 700 -667 Descending KA90
Wed 07:11:00 PM 42.4667 -71.2833 324° Northwest  Level FlightAware Approximate
Wed 07:18:00 PM 42.4699 -71.2890 324° Northwest  Level Estimated
Wed 07:19:00 PM 42.4667 -71.2833 324° Northwest  Level FlightAware Approximate
Wed 07:20:00 PM 42.4699 -71.2890 324° Northwest  Level Estimated

Login

Don't have an account? Register now (free) for customized features, flight alerts, and more!